createdAt,value
2022-12-18T00:01:35.446Z,64.97
2022-12-18T00:04:15.256Z,60.03
2022-12-18T00:06:42.067Z,64.30
2022-12-18T00:09:10.432Z,67.63
2022-12-18T00:11:37.333Z,64.30
2022-12-18T00:14:04.191Z,61.55
2022-12-18T00:16:33.810Z,62.28
2022-12-18T00:19:01.658Z,65.13
2022-12-18T00:21:30.708Z,62.58
2022-12-18T00:23:59.100Z,61.08
2022-12-18T00:26:32.772Z,59.30
2022-12-18T00:29:07.217Z,63.15
2022-12-18T00:31:34.589Z,58.95
2022-12-18T00:34:02.246Z,68.32
2022-12-18T00:36:33.106Z,62.20
2022-12-18T00:39:02.658Z,59.58
2022-12-18T00:41:48.419Z,57.75
2022-12-18T00:44:18.275Z,55.80
2022-12-18T00:46:48.019Z,58.83
2022-12-18T00:49:18.612Z,57.55
2022-12-18T00:51:46.618Z,56.00
2022-12-18T00:54:14.062Z,57.03
2022-12-18T00:56:48.236Z,60.47
2022-12-18T00:59:19.583Z,60.45
2022-12-18T01:01:47.905Z,58.58
2022-12-18T01:04:15.303Z,56.88
2022-12-18T01:06:45.690Z,56.25
2022-12-18T01:09:12.742Z,57.30
2022-12-18T01:11:39.573Z,55.28
2022-12-18T01:14:06.447Z,54.72
2022-12-18T01:16:33.319Z,54.47
2022-12-18T01:19:00.149Z,60.90
2022-12-18T01:21:28.001Z,56.03
2022-12-18T01:23:57.145Z,59.83
2022-12-18T01:26:26.183Z,59.60
2022-12-18T01:28:55.529Z,60.20
2022-12-18T01:31:31.042Z,61.15
2022-12-18T01:34:00.991Z,59.13
2022-12-18T01:36:32.193Z,59.35
2022-12-18T01:39:07.263Z,58.08
2022-12-18T01:41:54.448Z,65.35
2022-12-18T01:45:06.337Z,61.50
2022-12-18T01:47:44.635Z,64.30
2022-12-18T01:50:21.438Z,65.25
2022-12-18T01:52:53.885Z,62.95
2022-12-18T01:55:26.014Z,71.53
2022-12-18T01:57:58.464Z,64.53
2022-12-18T02:00:27.198Z,63.97
2022-12-18T02:02:56.527Z,64.03
2022-12-18T02:05:47.425Z,61.28
2022-12-18T02:08:34.697Z,63.92
2022-12-18T02:11:40.692Z,64.35
2022-12-18T02:14:46.764Z,58.70
2022-12-18T02:17:33.912Z,57.80
2022-12-18T02:20:32.945Z,57.60
2022-12-18T02:23:20.397Z,59.97
2022-12-18T02:26:20.705Z,57.55
2022-12-18T02:29:04.829Z,55.53
2022-12-18T02:31:41.202Z,56.17
2022-12-18T02:34:11.131Z,57.25
2022-12-18T02:36:43.228Z,56.40
2022-12-18T02:39:14.209Z,55.45
2022-12-18T02:41:49.790Z,56.65
2022-12-18T02:44:16.788Z,51.58
2022-12-18T02:46:52.311Z,56.17
2022-12-18T02:49:44.481Z,53.08
2022-12-18T02:53:18.220Z,59.67
2022-12-18T02:56:14.845Z,55.92
2022-12-18T02:59:11.446Z,51.35
2022-12-18T03:02:27.311Z,54.35
2022-12-18T03:05:09.593Z,56.95
2022-12-18T03:08:00.402Z,56.03
2022-12-18T03:10:37.589Z,57.55
2022-12-18T03:13:24.233Z,56.50
2022-12-18T03:15:57.997Z,55.70
2022-12-18T03:18:36.838Z,57.20
2022-12-18T03:21:07.539Z,56.53
2022-12-18T03:23:46.828Z,57.83
2022-12-18T03:26:20.577Z,52.35
2022-12-18T03:29:11.121Z,60.78
2022-12-18T03:31:43.599Z,58.35
2022-12-18T03:34:18.291Z,51.60
2022-12-18T03:36:47.350Z,60.40
2022-12-18T03:39:15.618Z,55.95
2022-12-18T03:41:53.320Z,57.65
2022-12-18T03:45:01.745Z,58.25
2022-12-18T03:47:30.457Z,55.15
2022-12-18T03:50:23.002Z,54.85
2022-12-18T03:53:09.999Z,53.55
2022-12-18T03:55:38.539Z,54.50
2022-12-18T03:58:10.798Z,52.28
2022-12-18T04:00:56.919Z,53.40
2022-12-18T04:03:26.790Z,51.72
2022-12-18T04:05:57.284Z,54.15
2022-12-18T04:08:26.575Z,55.03
2022-12-18T04:11:02.804Z,49.10
2022-12-18T04:13:34.979Z,49.25
2022-12-18T04:16:03.847Z,48.13
2022-12-18T04:18:31.538Z,51.15
2022-12-18T04:20:59.999Z,47.67
2022-12-18T04:23:27.060Z,48.38
2022-12-18T04:25:57.440Z,49.33
2022-12-18T04:28:39.151Z,45.50
2022-12-18T04:31:06.244Z,44.15
2022-12-18T04:33:33.178Z,41.78
2022-12-18T04:36:00.337Z,40.47
2022-12-18T04:38:28.111Z,43.20
2022-12-18T04:41:03.053Z,44.97
2022-12-18T04:43:30.254Z,40.95
2022-12-18T04:46:08.818Z,41.50
2022-12-18T04:48:36.566Z,39.65
2022-12-18T04:51:04.597Z,41.80
2022-12-18T04:53:31.441Z,42.80
2022-12-18T04:56:24.593Z,36.13
2022-12-18T04:58:51.460Z,39.95
2022-12-18T05:01:19.620Z,40.13
2022-12-18T05:03:46.664Z,38.25
2022-12-18T05:06:13.524Z,38.30
2022-12-18T05:08:40.458Z,40.78
2022-12-18T05:11:13.240Z,38.97
2022-12-18T05:13:40.388Z,38.10
2022-12-18T05:16:08.341Z,37.80
2022-12-18T05:18:36.256Z,39.05
2022-12-18T05:21:04.009Z,40.58
2022-12-18T05:23:30.911Z,38.85
2022-12-18T05:26:04.015Z,35.70
2022-12-18T05:28:34.282Z,32.00
2022-12-18T05:31:04.493Z,36.95
2022-12-18T05:33:34.928Z,39.60
2022-12-18T05:36:05.058Z,37.17
2022-12-18T05:38:34.050Z,32.47
2022-12-18T05:41:01.061Z,34.03
2022-12-18T05:43:28.128Z,32.38
2022-12-18T05:45:55.580Z,33.08
2022-12-18T05:48:23.118Z,28.25
2022-12-18T05:50:51.185Z,30.38
2022-12-18T05:53:20.940Z,29.45
2022-12-18T05:55:48.908Z,31.85
2022-12-18T05:58:16.461Z,29.48
2022-12-18T06:00:47.030Z,29.23
2022-12-18T06:03:14.585Z,26.55
2022-12-18T06:05:46.223Z,27.58
2022-12-18T06:08:14.559Z,25.85
2022-12-18T06:10:42.696Z,29.55
2022-12-18T06:13:10.033Z,24.48
2022-12-18T06:15:39.902Z,25.95
2022-12-18T06:18:06.797Z,24.98
2022-12-18T06:20:34.167Z,29.10
2022-12-18T06:23:01.631Z,26.83
2022-12-18T06:25:28.472Z,26.70
2022-12-18T06:27:55.406Z,23.98
2022-12-18T06:30:22.389Z,25.60
2022-12-18T06:32:56.346Z,24.15
2022-12-18T06:35:24.216Z,27.20
2022-12-18T06:37:51.083Z,24.00
2022-12-18T06:40:18.217Z,26.15
2022-12-18T06:42:45.089Z,24.30
2022-12-18T06:45:12.491Z,24.05
2022-12-18T06:47:42.206Z,24.25
2022-12-18T06:50:09.461Z,27.55
2022-12-18T06:52:36.385Z,24.58
2022-12-18T06:55:03.926Z,24.42
2022-12-18T06:57:30.709Z,24.92
2022-12-18T06:59:57.606Z,25.83
2022-12-18T07:02:24.606Z,22.98
2022-12-18T07:04:51.602Z,24.17
2022-12-18T07:07:18.911Z,23.17
2022-12-18T07:09:45.659Z,24.90
2022-12-18T07:12:12.593Z,25.83
2022-12-18T07:14:39.452Z,24.58
2022-12-18T07:17:06.568Z,26.63
2022-12-18T07:19:33.930Z,24.90
2022-12-18T07:22:01.382Z,25.05
2022-12-18T07:24:28.450Z,25.02
2022-12-18T07:26:55.336Z,23.92
2022-12-18T07:29:22.321Z,21.48
2022-12-18T07:31:50.073Z,24.55
2022-12-18T07:34:17.412Z,22.95
2022-12-18T07:36:44.630Z,23.15
2022-12-18T07:39:14.388Z,24.45
2022-12-18T07:41:47.492Z,25.17
2022-12-18T07:44:16.459Z,23.45
2022-12-18T07:46:43.249Z,27.65
2022-12-18T07:49:09.983Z,23.42
2022-12-18T07:51:36.737Z,25.55
2022-12-18T07:54:03.687Z,24.90
2022-12-18T07:56:31.576Z,23.67
2022-12-18T07:59:00.002Z,26.60
2022-12-18T08:01:29.983Z,23.27
2022-12-18T08:03:58.549Z,34.80
2022-12-18T08:06:25.853Z,31.35
2022-12-18T08:08:54.768Z,28.20
2022-12-18T08:11:22.743Z,26.63
2022-12-18T08:13:49.649Z,24.48
2022-12-18T08:16:16.994Z,25.58
2022-12-18T08:18:43.907Z,23.63
2022-12-18T08:21:24.355Z,23.05
2022-12-18T08:23:53.331Z,27.98
2022-12-18T08:26:21.321Z,25.35
2022-12-18T08:28:50.427Z,23.88
2022-12-18T08:31:19.400Z,25.50
2022-12-18T08:33:48.753Z,24.58
2022-12-18T08:36:15.469Z,26.27
2022-12-18T08:38:42.331Z,25.65
2022-12-18T08:41:12.975Z,23.15
2022-12-18T08:43:59.441Z,25.30
2022-12-18T08:46:32.212Z,25.10
2022-12-18T08:48:59.195Z,22.40
2022-12-18T08:51:26.012Z,24.55
2022-12-18T08:53:52.821Z,22.13
2022-12-18T08:56:20.077Z,23.08
2022-12-18T08:58:46.953Z,25.13
2022-12-18T09:01:14.721Z,22.63
2022-12-18T09:03:42.623Z,22.80
2022-12-18T09:06:10.247Z,24.15
2022-12-18T09:08:37.909Z,23.60
2022-12-18T09:11:05.250Z,20.38
2022-12-18T09:13:32.032Z,25.25
2022-12-18T09:15:59.858Z,19.73
2022-12-18T09:18:26.676Z,25.77
2022-12-18T09:20:53.885Z,23.38
2022-12-18T09:23:22.313Z,21.90
2022-12-18T09:25:49.695Z,22.95
2022-12-18T09:28:20.204Z,21.48
2022-12-18T09:30:50.204Z,20.73
2022-12-18T09:33:18.104Z,21.60
2022-12-18T09:35:46.998Z,23.45
2022-12-18T09:38:19.486Z,21.98
2022-12-18T09:40:52.732Z,20.83
2022-12-18T09:43:28.076Z,22.92
2022-12-18T09:46:11.382Z,23.52
2022-12-18T09:48:47.330Z,22.80
2022-12-18T09:51:21.135Z,22.85
2022-12-18T09:53:57.791Z,20.27
2022-12-18T09:56:29.769Z,24.98
2022-12-18T09:59:03.026Z,22.95
2022-12-18T10:01:41.456Z,22.80
2022-12-18T10:04:11.475Z,22.70
2022-12-18T10:07:09.129Z,20.08
2022-12-18T10:09:51.802Z,20.15
2022-12-18T10:12:31.334Z,20.30
2022-12-18T10:15:33.975Z,22.17
2022-12-18T10:18:25.824Z,22.30
2022-12-18T10:21:12.727Z,21.50
2022-12-18T10:24:16.908Z,23.77
2022-12-18T10:26:45.122Z,20.40
2022-12-18T10:29:17.237Z,19.17
2022-12-18T10:31:44.311Z,22.08
2022-12-18T10:34:15.165Z,24.13
2022-12-18T10:36:43.458Z,21.33
2022-12-18T10:39:24.075Z,24.48
2022-12-18T10:41:50.915Z,22.40
2022-12-18T10:44:27.445Z,23.65
2022-12-18T10:47:12.138Z,19.15
2022-12-18T10:49:50.569Z,23.42
2022-12-18T10:52:25.533Z,23.17
2022-12-18T10:55:05.739Z,22.23
2022-12-18T10:57:39.588Z,20.60
2022-12-18T11:00:31.301Z,21.02
2022-12-18T11:02:59.092Z,21.70
2022-12-18T11:05:31.457Z,23.85
2022-12-18T11:08:00.632Z,21.13
2022-12-18T11:10:37.069Z,20.60
2022-12-18T11:13:25.744Z,25.67
2022-12-18T11:15:53.356Z,20.67
2022-12-18T11:18:34.521Z,20.27
2022-12-18T11:21:11.051Z,20.35
2022-12-18T11:23:50.658Z,21.67
2022-12-18T11:26:18.604Z,22.92
2022-12-18T11:28:51.424Z,21.25
2022-12-18T11:31:26.538Z,22.95
2022-12-18T11:34:31.178Z,21.27
2022-12-18T11:37:01.933Z,22.15
2022-12-18T11:39:39.541Z,21.35
2022-12-18T11:42:38.623Z,20.42
2022-12-18T11:45:14.130Z,22.92
2022-12-18T11:48:34.574Z,20.50
2022-12-18T11:51:06.507Z,21.75
2022-12-18T11:53:33.425Z,21.10
2022-12-18T11:56:28.070Z,20.77
2022-12-18T11:59:32.287Z,22.13
2022-12-18T12:02:46.581Z,20.70
2022-12-18T12:05:28.702Z,20.50
2022-12-18T12:08:39.273Z,21.85
2022-12-18T12:11:26.430Z,18.95
2022-12-18T12:14:26.437Z,19.50
2022-12-18T12:17:25.367Z,20.60
2022-12-18T12:20:21.209Z,20.50
2022-12-18T12:23:34.907Z,20.45
2022-12-18T12:26:15.874Z,22.27
2022-12-18T12:29:24.450Z,20.88
2022-12-18T12:32:35.230Z,21.58
2022-12-18T12:35:47.574Z,23.70
2022-12-18T12:38:23.944Z,20.40
2022-12-18T12:41:05.059Z,20.52
2022-12-18T12:43:50.870Z,19.95
2022-12-18T12:46:22.757Z,20.63
2022-12-18T12:49:03.019Z,20.38
2022-12-18T12:51:37.433Z,19.80
2022-12-18T12:54:16.620Z,20.88
2022-12-18T12:57:01.247Z,19.83
2022-12-18T12:59:41.326Z,19.95
2022-12-18T13:02:24.011Z,19.50
2022-12-18T13:05:15.756Z,21.25
2022-12-18T13:07:58.562Z,20.90
2022-12-18T13:10:31.499Z,21.27
2022-12-18T13:13:10.755Z,20.15
2022-12-18T13:15:48.150Z,21.05
2022-12-18T13:18:20.196Z,22.35
2022-12-18T13:20:59.891Z,23.48
2022-12-18T13:23:40.883Z,22.52
2022-12-18T13:26:08.957Z,20.55
2022-12-18T13:28:47.877Z,21.13
2022-12-18T13:31:39.419Z,17.98
2022-12-18T13:34:28.075Z,20.70
2022-12-18T13:37:13.092Z,21.60
2022-12-18T13:39:39.959Z,21.02
2022-12-18T13:42:06.946Z,21.15
2022-12-18T13:44:41.570Z,23.88
2022-12-18T13:47:35.461Z,20.13
2022-12-18T13:50:20.870Z,21.27
2022-12-18T13:52:53.611Z,19.58
2022-12-18T13:55:23.351Z,21.52
2022-12-18T13:57:50.167Z,21.25
2022-12-18T14:00:30.538Z,21.55
2022-12-18T14:02:59.779Z,21.10
2022-12-18T14:05:28.154Z,20.45
2022-12-18T14:08:00.341Z,21.35
2022-12-18T14:10:47.990Z,23.33
2022-12-18T14:13:30.245Z,21.80
2022-12-18T14:15:59.242Z,20.75
2022-12-18T14:18:45.392Z,21.67
2022-12-18T14:21:23.780Z,22.70
2022-12-18T14:24:23.025Z,19.50
2022-12-18T14:26:53.860Z,22.75
2022-12-18T14:29:31.809Z,22.48
2022-12-18T14:32:17.569Z,22.35
2022-12-18T14:34:54.948Z,20.50
2022-12-18T14:37:26.254Z,21.08
2022-12-18T14:39:55.971Z,22.58
2022-12-18T14:42:22.846Z,21.27
2022-12-18T14:45:12.512Z,22.58
2022-12-18T14:47:36.646Z,22.92
2022-12-18T14:50:03.847Z,25.23
2022-12-18T14:52:33.097Z,22.85
2022-12-18T14:54:59.882Z,19.27
2022-12-18T14:57:38.724Z,22.52
2022-12-18T15:00:21.727Z,22.60
2022-12-18T15:02:54.385Z,22.50
2022-12-18T15:05:28.873Z,22.83
2022-12-18T15:08:00.618Z,23.08
2022-12-18T15:10:35.377Z,26.00
2022-12-18T15:13:03.396Z,24.08
2022-12-18T15:15:40.232Z,22.40
2022-12-18T15:18:21.063Z,24.65
2022-12-18T15:20:52.605Z,23.98
2022-12-18T15:23:46.177Z,24.88
2022-12-18T15:26:17.041Z,25.38
2022-12-18T15:28:52.953Z,22.75
2022-12-18T15:31:35.949Z,23.00
2022-12-18T15:34:14.596Z,26.05
2022-12-18T15:36:41.472Z,25.48
2022-12-18T15:39:12.942Z,25.05
2022-12-18T15:41:40.135Z,23.40
2022-12-18T15:44:26.545Z,24.13
2022-12-18T15:46:53.556Z,26.30
2022-12-18T15:49:23.531Z,26.70
2022-12-18T15:51:55.769Z,27.40
2022-12-18T15:54:42.998Z,23.35
2022-12-18T15:57:24.281Z,26.08
2022-12-18T15:59:58.872Z,24.40
2022-12-18T16:02:26.558Z,27.15
2022-12-18T16:04:54.894Z,25.67
2022-12-18T16:07:25.085Z,29.50
2022-12-18T16:09:53.228Z,26.63
2022-12-18T16:12:25.805Z,28.27
2022-12-18T16:14:52.766Z,24.63
2022-12-18T16:17:21.310Z,27.38
2022-12-18T16:19:48.395Z,26.42
2022-12-18T16:22:25.897Z,26.02
2022-12-18T16:24:54.877Z,27.23
2022-12-18T16:27:23.429Z,30.23
2022-12-18T16:29:51.193Z,28.63
2022-12-18T16:32:21.244Z,25.23
2022-12-18T16:34:48.456Z,26.77
2022-12-18T16:37:17.094Z,28.95
2022-12-18T16:39:45.080Z,24.55
2022-12-18T16:42:20.006Z,26.00
2022-12-18T16:44:49.594Z,27.95
2022-12-18T16:47:17.872Z,25.85
2022-12-18T16:49:45.922Z,26.23
2022-12-18T16:52:13.880Z,29.30
2022-12-18T16:54:40.874Z,28.63
2022-12-18T16:57:10.312Z,26.55
2022-12-18T16:59:37.368Z,25.75
2022-12-18T17:02:24.004Z,29.08
2022-12-18T17:04:54.998Z,26.25
2022-12-18T17:07:21.991Z,31.17
2022-12-18T17:09:50.358Z,26.42
2022-12-18T17:12:18.095Z,27.77
2022-12-18T17:14:45.085Z,25.70
2022-12-18T17:17:27.178Z,28.90
2022-12-18T17:19:54.117Z,30.50
2022-12-18T17:22:23.017Z,28.67
2022-12-18T17:24:49.880Z,27.40
2022-12-18T17:27:16.995Z,26.95
2022-12-18T17:29:47.834Z,28.88
2022-12-18T17:32:16.815Z,27.75
2022-12-18T17:34:43.741Z,27.15
2022-12-18T17:37:10.752Z,30.58
2022-12-18T17:39:38.270Z,30.75
2022-12-18T17:42:05.505Z,30.73
2022-12-18T17:44:34.192Z,28.35
2022-12-18T17:47:01.334Z,33.38
2022-12-18T17:49:28.571Z,33.83
2022-12-18T17:51:55.406Z,30.92
2022-12-18T17:54:22.276Z,31.52
2022-12-18T17:56:49.086Z,29.60
2022-12-18T17:59:16.643Z,31.60
2022-12-18T18:01:45.175Z,32.40
2022-12-18T18:04:15.490Z,28.77
2022-12-18T18:06:42.547Z,30.08
2022-12-18T18:09:16.817Z,34.42
2022-12-18T18:12:03.534Z,29.98
2022-12-18T18:14:30.850Z,29.55
2022-12-18T18:16:58.206Z,34.53
2022-12-18T18:19:31.008Z,33.47
2022-12-18T18:21:57.935Z,31.45
2022-12-18T18:24:25.737Z,32.03
2022-12-18T18:26:55.671Z,30.40
2022-12-18T18:29:26.869Z,29.30
2022-12-18T18:31:54.247Z,31.05
2022-12-18T18:34:27.698Z,32.35
2022-12-18T18:36:54.964Z,32.67
2022-12-18T18:39:24.978Z,31.83
2022-12-18T18:41:52.687Z,30.92
2022-12-18T18:44:22.819Z,29.13
2022-12-18T18:46:55.704Z,29.23
2022-12-18T18:49:27.425Z,25.98
2022-12-18T18:51:57.202Z,34.53
2022-12-18T18:54:25.757Z,33.03
2022-12-18T18:59:39.744Z,32.70
2022-12-18T19:02:09.893Z,33.20
2022-12-18T19:04:38.898Z,27.55
2022-12-18T19:07:15.081Z,30.50
2022-12-18T19:09:56.870Z,29.90
2022-12-18T19:12:42.404Z,28.63
2022-12-18T19:15:09.723Z,31.80
2022-12-18T19:17:38.278Z,30.85
2022-12-18T19:20:07.250Z,30.63
2022-12-18T19:22:35.270Z,30.63
2022-12-18T19:25:02.072Z,31.42
2022-12-18T19:27:28.854Z,32.20
2022-12-18T19:29:55.636Z,30.35
2022-12-18T19:32:22.672Z,32.30
2022-12-18T19:34:50.621Z,27.88
2022-12-18T19:37:17.707Z,31.85
2022-12-18T19:39:44.582Z,29.70
2022-12-18T19:42:11.380Z,31.27
2022-12-18T19:44:38.149Z,33.35
2022-12-18T19:47:05.003Z,31.88
2022-12-18T19:49:32.668Z,34.63
2022-12-18T19:51:59.569Z,31.77
2022-12-18T19:54:26.366Z,30.65
2022-12-18T19:56:53.514Z,31.58
2022-12-18T19:59:20.496Z,35.97
2022-12-18T20:01:47.796Z,36.80
2022-12-18T20:04:14.935Z,34.55
2022-12-18T20:06:54.113Z,33.45
2022-12-18T20:09:21.937Z,31.63
2022-12-18T20:11:49.832Z,32.25
2022-12-18T20:14:23.265Z,36.55
2022-12-18T20:16:52.254Z,31.75
2022-12-18T20:19:19.871Z,33.17
2022-12-18T20:21:47.623Z,31.90
2022-12-18T20:24:14.498Z,31.00
2022-12-18T20:26:41.399Z,34.30
2022-12-18T20:29:08.405Z,34.55
2022-12-18T20:31:35.249Z,35.42
2022-12-18T20:34:03.649Z,34.53
2022-12-18T20:36:33.030Z,35.60
2022-12-18T20:39:05.425Z,34.65
2022-12-18T20:41:38.350Z,32.22
2022-12-18T20:44:21.991Z,32.90
2022-12-18T20:46:57.002Z,32.42
2022-12-18T20:49:26.259Z,35.13
2022-12-18T20:51:56.359Z,34.17
2022-12-18T20:54:26.647Z,36.42
2022-12-18T20:56:55.057Z,36.92
2022-12-18T20:59:23.333Z,37.80
2022-12-18T21:01:51.976Z,35.20
2022-12-18T21:04:23.369Z,36.03
2022-12-18T21:07:00.501Z,33.78
2022-12-18T21:09:37.135Z,36.47
2022-12-18T21:12:29.327Z,34.92
2022-12-18T21:15:01.039Z,31.95
2022-12-18T21:17:28.723Z,35.63
2022-12-18T21:19:56.831Z,33.90
2022-12-18T21:22:24.518Z,36.53
2022-12-18T21:24:51.711Z,36.15
2022-12-18T21:27:19.882Z,33.38
2022-12-18T21:29:47.199Z,37.28
2022-12-18T21:32:14.514Z,36.90
2022-12-18T21:34:47.486Z,37.65
2022-12-18T21:37:15.186Z,34.63
2022-12-18T21:39:41.970Z,38.08
2022-12-18T21:42:30.952Z,35.25
2022-12-18T21:44:57.901Z,36.60
2022-12-18T21:47:24.736Z,38.25
2022-12-18T21:49:52.770Z,37.58
2022-12-18T21:52:30.920Z,37.08
2022-12-18T21:55:06.609Z,38.05
2022-12-18T21:57:36.918Z,37.85
2022-12-18T22:00:06.166Z,35.70
2022-12-18T22:02:39.286Z,39.35
2022-12-18T22:05:06.849Z,36.50
2022-12-18T22:07:33.963Z,37.03
2022-12-18T22:10:02.046Z,36.70
2022-12-18T22:12:35.200Z,40.75
2022-12-18T22:15:04.859Z,37.33
2022-12-18T22:17:31.862Z,39.00
2022-12-18T22:19:58.637Z,37.42
2022-12-18T22:22:25.518Z,36.42
2022-12-18T22:24:52.350Z,36.58
2022-12-18T22:27:19.150Z,41.13
2022-12-18T22:30:04.007Z,38.65
2022-12-18T22:32:35.453Z,33.65
2022-12-18T22:35:09.432Z,38.45
2022-12-18T22:37:39.831Z,37.15
2022-12-18T22:40:07.611Z,42.17
2022-12-18T22:42:35.502Z,41.03
2022-12-18T22:45:02.315Z,37.67
2022-12-18T22:47:30.459Z,43.10
2022-12-18T22:49:58.343Z,38.45
2022-12-18T22:52:25.743Z,37.85
2022-12-18T22:54:54.268Z,37.83
2022-12-18T22:57:24.622Z,39.53
2022-12-18T22:59:51.933Z,37.83
2022-12-18T23:02:19.126Z,37.60
2022-12-18T23:04:47.460Z,40.40
2022-12-18T23:07:15.116Z,36.53
2022-12-18T23:09:42.138Z,37.25
2022-12-18T23:12:18.926Z,40.42
2022-12-18T23:14:47.145Z,40.22
2022-12-18T23:17:14.047Z,41.20
2022-12-18T23:19:47.181Z,45.53
2022-12-18T23:22:15.565Z,38.70
2022-12-18T23:24:42.582Z,42.88
2022-12-18T23:27:11.500Z,40.28
2022-12-18T23:29:39.119Z,39.95
2022-12-18T23:32:06.134Z,39.17
2022-12-18T23:34:32.881Z,40.67
2022-12-18T23:37:00.985Z,38.08
2022-12-18T23:39:30.117Z,40.03
2022-12-18T23:42:00.745Z,41.30
2022-12-18T23:44:28.095Z,40.92
2022-12-18T23:46:55.311Z,40.53
2022-12-18T23:49:23.124Z,42.08
2022-12-18T23:51:50.270Z,41.80
2022-12-18T23:54:17.279Z,37.40
2022-12-18T23:56:49.131Z,37.22
2022-12-18T23:59:15.946Z,38.83
